Weather at Muar / Bakri Airport

Public forecast

Using degrees Celsius for public forecast. Weather courtesy of forecast.io.

Closest aviation weather report (METAR) to Muar / Bakri Airport

Closest report is Malacca International Airport, 27.5 nm (50.9 km) WNW.

2024/05/23 02:00 (retrieved 59 minutes ago)

WMKM 230200Z 07003KT 360V140 5000 HZ FEW017CB 29/26 Q1009

Closest aviation forecast (TAF) to Muar / Bakri Airport

Forecast is more than 12 hours old.

Closest forecast is Aden Adde International Airport, 3,441.1 nm (6,373.0 km) W.

2024/05/22 06:54 (retrieved 20 hours ago)

TAF HCMM 220500Z 2206/2312 23018KT 9999 SCT024 BECMG 2212/2215 BKN024 TEMPO 2221/2300 20010KT -RA SCT023 BKN070